Time;durP1;ratioP1;P1;durP2;ratioP2;P2;SDS_P1;SDS_P2;PMS_P1;PMS_P2;Temp;Humidity;BMP_temperature;BMP_pressure;BME280_temperature;BME280_humidity;BME280_pressure;Samples;Min_cycle;Max_cycle;Signal;HPM_P1;HPM_P2
2021/12/14 00:01:53;;;;;;;31.48;16.65;;;7.70;99.90;;;;;;5009691;28;21195;-84
2021/12/14 00:04:25;;;;;;;36.45;19.20;;;7.70;99.90;;;;;;5004556;28;20261;-84
2021/12/14 00:06:51;;;;;;;36.65;19.80;;;7.70;99.90;;;;;;5021874;28;20182;-84
2021/12/14 00:09:25;;;;;;;28.55;17.17;;;7.80;99.90;;;;;;5028317;28;20221;-86
2021/12/14 00:12:10;;;;;;;24.63;15.20;;;7.80;99.90;;;;;;5022932;28;20670;-84
2021/12/14 00:17:09;;;;;;;32.70;17.75;;;7.70;99.90;;;;;;5022988;28;20190;-84
2021/12/14 00:19:36;;;;;;;31.20;16.67;;;7.80;99.90;;;;;;5026401;28;20189;-85
2021/12/14 00:22:17;;;;;;;32.22;16.70;;;7.70;99.90;;;;;;5026119;28;20182;-85
2021/12/14 00:24:42;;;;;;;28.63;16.95;;;7.60;99.90;;;;;;5002200;28;20190;-84
2021/12/14 00:27:11;;;;;;;36.70;17.90;;;7.50;99.90;;;;;;4998088;28;20691;-85
2021/12/14 00:29:46;;;;;;;30.98;17.80;;;7.60;99.90;;;;;;5019245;28;20706;-86
2021/12/14 00:32:19;;;;;;;25.00;14.60;;;7.70;99.90;;;;;;5018605;28;20217;-85
2021/12/14 00:34:47;;;;;;;29.73;13.43;;;7.50;99.90;;;;;;5021647;28;20795;-85
2021/12/14 00:37:25;;;;;;;36.33;17.27;;;7.40;99.90;;;;;;5029800;28;20197;-83
2021/12/14 00:39:53;;;;;;;23.45;12.82;;;7.40;99.90;;;;;;5003816;28;20189;-86
2021/12/14 00:42:20;;;;;;;23.83;13.38;;;7.20;99.90;;;;;;5021335;28;20212;-87
2021/12/14 00:44:46;;;;;;;25.65;12.52;;;7.20;99.90;;;;;;5007562;28;20189;-86
2021/12/14 00:47:12;;;;;;;28.10;13.07;;;7.10;99.90;;;;;;5020761;28;20185;-86
2021/12/14 00:49:39;;;;;;;26.80;14.80;;;7.00;99.90;;;;;;5009902;28;20210;-86
2021/12/14 00:52:06;;;;;;;27.20;12.18;;;7.10;99.90;;;;;;5001334;28;20276;-87
2021/12/14 00:54:32;;;;;;;27.08;11.57;;;7.00;99.90;;;;;;5023939;28;20209;-88
2021/12/14 00:56:58;;;;;;;24.02;13.00;;;7.00;99.90;;;;;;5024882;28;20191;-86
2021/12/14 00:59:24;;;;;;;24.05;11.77;;;7.00;99.90;;;;;;5006487;28;22837;-86
2021/12/14 01:02:12;;;;;;;21.10;10.97;;;6.90;99.90;;;;;;5022905;28;20280;-85
2021/12/14 01:04:56;;;;;;;22.48;11.60;;;7.00;99.90;;;;;;5019397;28;20226;-86
2021/12/14 01:07:26;;;;;;;18.88;10.68;;;7.10;99.90;;;;;;5024046;28;20893;-85
2021/12/14 01:09:56;;;;;;;20.63;10.60;;;7.10;99.90;;;;;;5020353;28;20178;-83
2021/12/14 01:12:48;;;;;;;19.05;11.27;;;6.70;99.90;;;;;;5020327;28;20500;-82
2021/12/14 01:15:27;;;;;;;15.68;9.25;;;6.70;99.90;;;;;;5002981;28;20205;-85
2021/12/14 01:18:16;;;;;;;21.73;11.20;;;6.50;99.90;;;;;;5001144;28;20224;-87
2021/12/14 01:20:47;;;;;;;18.85;9.98;;;6.50;99.90;;;;;;5021610;28;20201;-84
2021/12/14 01:23:19;;;;;;;19.27;8.77;;;6.50;99.90;;;;;;5018310;28;20212;-84
2021/12/14 01:25:49;;;;;;;20.30;12.10;;;6.30;99.90;;;;;;5025109;28;20166;-84
2021/12/14 01:28:23;;;;;;;23.85;12.10;;;6.30;99.90;;;;;;5007127;28;20188;-86
2021/12/14 01:31:12;;;;;;;24.05;11.18;;;9.10;99.90;;;;;;5021181;28;20197;-86
2021/12/14 01:33:41;;;;;;;19.83;10.32;;;6.30;99.90;;;;;;5023365;28;20666;-83
2021/12/14 01:36:22;;;;;;;19.10;9.27;;;6.30;99.90;;;;;;5019899;28;20194;-85
2021/12/14 01:39:09;;;;;;;18.77;9.82;;;6.30;99.90;;;;;;5016242;28;20641;-84
2021/12/14 01:41:35;;;;;;;20.63;10.23;;;6.30;99.90;;;;;;5021152;28;20209;-85
2021/12/14 01:44:03;;;;;;;21.70;11.40;;;6.40;99.90;;;;;;5014725;28;20202;-83
2021/12/14 01:46:34;;;;;;;22.30;10.57;;;6.40;99.90;;;;;;5014870;28;20195;-84
2021/12/14 01:49:05;;;;;;;16.60;9.13;;;6.20;99.90;;;;;;5017874;28;20171;-84
2021/12/14 01:51:31;;;;;;;22.05;9.90;;;6.30;99.90;;;;;;5012828;28;20224;-84
2021/12/14 01:53:58;;;;;;;24.27;11.00;;;6.20;99.90;;;;;;5016363;28;20209;-83
2021/12/14 01:56:27;;;;;;;19.70;10.70;;;6.10;99.90;;;;;;4999446;28;20668;-83
2021/12/14 01:59:05;;;;;;;20.40;10.65;;;6.10;99.90;;;;;;5013951;28;20186;-83
2021/12/14 02:01:47;;;;;;;22.55;11.07;;;6.10;99.90;;;;;;5018817;28;20205;-86
2021/12/14 02:04:20;;;;;;;19.00;9.65;;;6.10;99.90;;;;;;5000000;28;20201;-84
2021/12/14 02:06:57;;;;;;;19.15;8.98;;;6.10;99.90;;;;;;5013477;28;20189;-84
2021/12/14 02:09:26;;;;;;;17.23;9.65;;;6.20;99.90;;;;;;5017023;28;20169;-82
2021/12/14 02:11:56;;;;;;;17.15;8.77;;;6.20;99.90;;;;;;5018464;28;20267;-83
2021/12/14 02:14:22;;;;;;;18.40;10.00;;;6.20;99.90;;;;;;5001425;28;20606;-83
2021/12/14 02:16:57;;;;;;;17.25;8.88;;;6.20;99.90;;;;;;5015809;28;20192;-83
2021/12/14 02:19:23;;;;;;;14.73;8.63;;;6.20;99.90;;;;;;5001681;28;20223;-84
2021/12/14 02:21:51;;;;;;;15.13;8.60;;;6.10;99.90;;;;;;5023462;28;20221;-84
2021/12/14 02:24:19;;;;;;;21.52;10.52;;;6.10;99.90;;;;;;5018097;28;20448;-85
2021/12/14 02:26:46;;;;;;;21.77;10.75;;;6.00;99.90;;;;;;5007886;28;20182;-85
2021/12/14 02:29:21;;;;;;;20.10;9.35;;;6.00;99.90;;;;;;5023200;28;20173;-83
2021/12/14 02:31:47;;;;;;;18.00;9.70;;;6.00;99.90;;;;;;5003647;28;20328;-84
2021/12/14 02:34:13;;;;;;;19.20;10.37;;;6.00;99.90;;;;;;5021814;28;20308;-84
2021/12/14 02:36:42;;;;;;;20.17;10.13;;;6.00;99.90;;;;;;5002989;28;20185;-83
2021/12/14 02:39:23;;;;;;;19.45;9.85;;;5.90;99.90;;;;;;5037068;28;20174;-82
2021/12/14 02:41:54;;;;;;;19.75;9.90;;;5.90;99.90;;;;;;5023488;28;20205;-78
2021/12/14 02:44:21;;;;;;;19.77;8.60;;;5.90;99.90;;;;;;5023518;28;20297;-85
2021/12/14 02:47:00;;;;;;;15.60;7.53;;;5.80;99.90;;;;;;4988892;28;20186;-83
2021/12/14 02:49:29;;;;;;;14.40;7.20;;;5.80;99.90;;;;;;5007506;28;20190;-82
2021/12/14 02:52:32;;;;;;;14.02;7.32;;;5.80;99.90;;;;;;4989605;28;22498;-81
2021/12/14 02:55:08;;;;;;;13.38;6.43;;;5.70;99.90;;;;;;5014405;28;20184;-82
2021/12/14 02:57:36;;;;;;;19.35;7.15;;;5.60;99.90;;;;;;5008664;28;20515;-78
2021/12/14 03:00:07;;;;;;;18.67;8.48;;;5.60;99.90;;;;;;5011352;28;20218;-83
2021/12/14 03:02:33;;;;;;;24.35;8.82;;;5.60;99.90;;;;;;5013028;28;20170;-81
2021/12/14 03:05:09;;;;;;;19.10;7.82;;;5.50;99.90;;;;;;4994567;28;20182;-84
2021/12/14 03:07:43;;;;;;;23.77;12.15;;;5.50;99.90;;;;;;4988629;28;20197;-82
2021/12/14 03:12:44;;;;;;;22.05;9.70;;;5.50;99.90;;;;;;5008002;28;20574;-82
2021/12/14 03:15:17;;;;;;;17.85;9.60;;;5.50;99.90;;;;;;5008320;28;21992;-83
2021/12/14 03:17:44;;;;;;;20.85;8.98;;;5.50;99.90;;;;;;5012417;28;20614;-83
2021/12/14 03:20:24;;;;;;;27.90;10.52;;;5.50;99.90;;;;;;5001971;28;20204;-84
2021/12/14 03:23:05;;;;;;;19.90;9.68;;;5.50;99.90;;;;;;4994493;28;20190;-83
2021/12/14 03:25:32;;;;;;;23.30;10.50;;;5.40;99.90;;;;;;4994591;28;20181;-78
2021/12/14 03:27:58;;;;;;;13.93;7.25;;;5.50;99.90;;;;;;5012667;28;20177;-82
2021/12/14 03:30:32;;;;;;;29.20;10.57;;;5.50;99.90;;;;;;5008901;28;20292;-81
2021/12/14 03:33:03;;;;;;;23.85;10.40;;;5.50;99.90;;;;;;4992923;28;20198;-83
2021/12/14 03:35:39;;;;;;;28.83;10.48;;;5.50;99.90;;;;;;5015149;28;20278;-85
2021/12/14 03:38:23;;;;;;;20.77;9.73;;;5.50;99.90;;;;;;5010107;28;20189;-83
2021/12/14 03:41:04;;;;;;;23.63;10.35;;;5.60;99.90;;;;;;4995834;28;20255;-84
2021/12/14 03:43:29;;;;;;;22.33;9.52;;;5.70;99.90;;;;;;5013905;28;20590;-83
2021/12/14 03:45:56;;;;;;;20.40;9.00;;;5.60;99.90;;;;;;5003533;28;20295;-82
2021/12/14 03:48:24;;;;;;;24.20;10.60;;;5.60;99.90;;;;;;4989899;28;20233;-81
2021/12/14 03:50:50;;;;;;;18.73;9.23;;;5.60;99.90;;;;;;4990989;28;20628;-83
2021/12/14 03:53:18;;;;;;;25.10;9.87;;;5.60;99.90;;;;;;4994585;28;20289;-82
2021/12/14 03:55:49;;;;;;;21.55;9.90;;;5.70;99.90;;;;;;4995304;28;20190;-81
2021/12/14 03:58:21;;;;;;;23.10;10.23;;;5.70;99.90;;;;;;5007645;28;20186;-82
2021/12/14 04:00:54;;;;;;;20.25;10.18;;;5.90;99.90;;;;;;5008157;28;20345;-80
2021/12/14 04:03:23;;;;;;;15.88;8.77;;;6.00;99.90;;;;;;5011441;28;20224;-83
2021/12/14 04:05:49;;;;;;;22.65;8.38;;;6.20;99.90;;;;;;5016516;28;20174;-80
2021/12/14 04:08:16;;;;;;;18.53;8.30;;;6.20;99.90;;;;;;5007695;28;20186;-79
2021/12/14 04:10:45;;;;;;;20.25;9.15;;;6.10;99.90;;;;;;5011615;28;20481;-83
2021/12/14 04:13:28;;;;;;;21.42;8.95;;;6.10;99.90;;;;;;4989131;28;20213;-82
2021/12/14 04:15:54;;;;;;;21.10;8.95;;;6.10;99.90;;;;;;5032935;28;20191;-79
2021/12/14 04:18:21;;;;;;;22.05;7.60;;;6.00;99.90;;;;;;5029432;28;20189;-77
2021/12/14 04:20:47;;;;;;;18.83;8.52;;;5.90;99.90;;;;;;5001095;28;20209;-85
2021/12/14 04:23:18;;;;;;;15.23;7.05;;;5.80;99.90;;;;;;4989431;28;20209;-84
2021/12/14 04:25:45;;;;;;;19.30;8.32;;;5.70;99.90;;;;;;5013628;28;20189;-81
2021/12/14 04:28:15;;;;;;;19.55;8.75;;;5.70;99.90;;;;;;4990393;28;20182;-82
2021/12/14 04:30:42;;;;;;;19.23;9.45;;;5.70;99.90;;;;;;4995615;28;20277;-82
2021/12/14 04:33:10;;;;;;;21.30;8.93;;;5.70;99.90;;;;;;5013226;28;20205;-81
2021/12/14 04:35:40;;;;;;;22.35;10.07;;;5.70;99.90;;;;;;4998103;28;20181;-82
2021/12/14 04:38:15;;;;;;;24.30;11.50;;;5.70;99.90;;;;;;5002309;28;20182;-81
2021/12/14 04:52:13;;;;;;;19.75;9.60;;;5.80;99.90;;;;;;5038286;28;20260;-79
2021/12/14 04:54:49;;;;;;;14.90;7.78;;;5.90;99.90;;;;;;5019926;28;20226;-86
2021/12/14 04:57:31;;;;;;;19.33;9.60;;;5.80;99.90;;;;;;5000242;28;20190;-84
2021/12/14 05:00:01;;;;;;;16.38;8.40;;;5.80;99.90;;;;;;5011324;28;20196;-82
2021/12/14 05:02:31;;;;;;;18.80;9.02;;;5.70;99.90;;;;;;5010792;28;20639;-82
2021/12/14 05:04:57;;;;;;;18.40;8.05;;;5.70;99.90;;;;;;4991161;28;20213;-82
2021/12/14 05:10:06;;;;;;;19.55;7.60;;;5.60;99.90;;;;;;5011533;28;20724;-82
2021/12/14 05:12:34;;;;;;;19.05;9.35;;;5.50;99.90;;;;;;4990438;28;20181;-85
2021/12/14 05:15:05;;;;;;;18.30;8.88;;;5.40;99.90;;;;;;5010050;28;20186;-82
2021/12/14 05:17:34;;;;;;;26.52;14.13;;;5.40;99.90;;;;;;4990860;28;20208;-80
2021/12/14 05:20:01;;;;;;;45.08;20.23;;;5.50;99.90;;;;;;4990583;28;20200;-84
2021/12/14 05:22:33;;;;;;;20.30;10.93;;;5.50;99.90;;;;;;5010118;28;20178;-83
2021/12/14 05:25:17;;;;;;;19.42;8.98;;;5.50;99.90;;;;;;4994548;28;20280;-80
2021/12/14 05:27:48;;;;;;;24.95;14.48;;;5.30;99.90;;;;;;5012529;28;20178;-81
2021/12/14 05:30:19;;;;;;;20.35;9.60;;;5.30;99.90;;;;;;5015179;28;20217;-81
2021/12/14 05:32:46;;;;;;;14.75;8.57;;;5.40;99.90;;;;;;4990356;28;20240;-83
2021/12/14 05:35:15;;;;;;;15.98;8.45;;;5.50;99.90;;;;;;5010606;28;20199;-79
2021/12/14 05:37:47;;;;;;;15.80;8.35;;;5.60;99.90;;;;;;5006712;28;20189;-82
2021/12/14 05:40:25;;;;;;;17.27;9.50;;;5.70;99.90;;;;;;4993353;28;21584;-81
2021/12/14 05:43:07;;;;;;;19.35;11.15;;;5.80;99.90;;;;;;4990587;28;20489;-83
2021/12/14 05:45:36;;;;;;;16.40;8.55;;;5.80;99.90;;;;;;4992173;28;20284;-80
2021/12/14 05:48:05;;;;;;;33.90;16.50;;;5.80;99.90;;;;;;5012967;28;20441;-80
2021/12/14 05:50:38;;;;;;;16.27;9.60;;;5.80;99.90;;;;;;5000179;28;20190;-82
2021/12/14 05:53:06;;;;;;;25.23;12.75;;;5.60;99.90;;;;;;5011324;28;20217;-85
2021/12/14 05:55:36;;;;;;;27.10;12.35;;;5.50;99.90;;;;;;5012753;28;20196;-83
2021/12/14 05:58:04;;;;;;;22.35;11.05;;;5.50;99.90;;;;;;4982622;28;21241;-86
2021/12/14 06:00:31;;;;;;;15.48;8.85;;;5.50;99.90;;;;;;4989840;28;20210;-83
2021/12/14 06:02:59;;;;;;;25.25;12.60;;;5.30;99.90;;;;;;5012507;28;20210;-84
2021/12/14 06:05:30;;;;;;;37.22;17.73;;;5.30;99.90;;;;;;5015230;28;20189;-82
2021/12/14 06:07:56;;;;;;;17.85;9.63;;;5.30;99.90;;;;;;4996493;28;20193;-84
2021/12/14 06:10:24;;;;;;;30.00;13.98;;;5.30;99.90;;;;;;4995345;28;20190;-85
2021/12/14 06:12:50;;;;;;;38.65;17.23;;;5.30;99.90;;;;;;5016501;28;20214;-83
2021/12/14 06:15:21;;;;;;;94.80;42.40;;;5.20;99.90;;;;;;5010854;28;20197;-84
2021/12/14 06:17:49;;;;;;;15.20;8.35;;;5.30;99.90;;;;;;5012453;28;20466;-84
2021/12/14 06:20:24;;;;;;;23.05;9.35;;;5.30;99.90;;;;;;4990929;28;20288;-84
2021/12/14 06:22:52;;;;;;;25.30;10.98;;;5.40;99.90;;;;;;4991306;28;20201;-84
2021/12/14 06:25:26;;;;;;;34.97;16.45;;;5.30;99.90;;;;;;5010781;28;20170;-84
2021/12/14 06:27:55;;;;;;;16.90;9.63;;;5.20;99.90;;;;;;5013343;28;20629;-85
2021/12/14 06:30:25;;;;;;;30.92;12.93;;;5.10;99.90;;;;;;5002624;28;20212;-83
2021/12/14 06:33:09;;;;;;;17.65;8.15;;;5.00;99.90;;;;;;5011593;28;20210;-85
2021/12/14 06:35:46;;;;;;;17.77;10.00;;;5.10;99.90;;;;;;5016306;28;20234;-84
2021/12/14 06:38:31;;;;;;;11.18;6.32;;;5.20;99.90;;;;;;4994440;28;20193;-85
2021/12/14 06:41:12;;;;;;;14.55;6.60;;;5.20;99.90;;;;;;4995016;28;20242;-85
2021/12/14 06:43:47;;;;;;;18.48;10.05;;;5.20;99.90;;;;;;5013705;28;20209;-80
2021/12/14 06:46:19;;;;;;;18.75;7.03;;;7.20;99.90;;;;;;4994006;28;20221;-84
2021/12/14 06:48:51;;;;;;;12.20;5.80;;;5.10;99.90;;;;;;4992283;28;20185;-86
2021/12/14 06:51:21;;;;;;;13.63;5.88;;;5.20;99.90;;;;;;4996891;28;20200;-83
2021/12/14 06:53:49;;;;;;;19.95;6.82;;;5.20;99.90;;;;;;5012912;28;20274;-84
2021/12/14 06:56:19;;;;;;;13.65;6.70;;;5.10;99.90;;;;;;4994188;28;20689;-83
2021/12/14 06:58:48;;;;;;;27.88;12.98;;;5.10;99.90;;;;;;4996068;28;20272;-86
2021/12/14 07:01:18;;;;;;;20.15;9.60;;;5.00;99.90;;;;;;5009476;28;20201;-84
2021/12/14 07:03:46;;;;;;;14.32;7.03;;;5.00;99.90;;;;;;4995663;28;20846;-85
2021/12/14 07:06:28;;;;;;;15.40;7.60;;;5.00;99.90;;;;;;5036203;28;20209;-82
2021/12/14 07:08:57;;;;;;;17.08;7.93;;;4.90;99.90;;;;;;5007909;28;20283;-88
2021/12/14 07:11:25;;;;;;;14.95;8.93;;;4.90;99.90;;;;;;4997580;28;20213;-81
2021/12/14 07:13:53;;;;;;;23.08;9.70;;;4.90;99.90;;;;;;5001729;28;20677;-84
2021/12/14 07:16:31;;;;;;;20.05;9.35;;;4.90;99.90;;;;;;5015098;28;20182;-81
2021/12/14 07:19:00;;;;;;;19.02;8.95;;;5.00;99.90;;;;;;4994511;28;20185;-83
2021/12/14 07:21:46;;;;;;;16.90;8.68;;;5.00;99.90;;;;;;5012622;28;20229;-81
2021/12/14 07:24:21;;;;;;;15.45;8.38;;;5.00;99.90;;;;;;5013222;28;22173;-87
2021/12/14 07:26:48;;;;;;;14.00;6.50;;;4.90;99.90;;;;;;4997236;28;20692;-84
2021/12/14 07:29:21;;;;;;;13.23;6.70;;;5.00;99.90;;;;;;5006032;28;20186;-82
2021/12/14 07:31:46;;;;;;;13.85;7.63;;;5.00;99.90;;;;;;5013626;28;20662;-82
2021/12/14 07:34:12;;;;;;;14.80;8.30;;;5.00;99.90;;;;;;5014347;28;20221;-85
2021/12/14 07:36:39;;;;;;;22.30;7.80;;;5.10;99.90;;;;;;5019067;28;20444;-83
2021/12/14 07:39:15;;;;;;;19.33;9.00;;;5.10;99.90;;;;;;4994647;28;20190;-83
2021/12/14 07:41:41;;;;;;;17.13;7.43;;;5.20;99.90;;;;;;5006918;28;20611;-82
2021/12/14 07:44:22;;;;;;;15.13;8.40;;;5.10;99.90;;;;;;5002341;28;20212;-85
2021/12/14 07:46:58;;;;;;;32.00;15.50;;;5.10;99.90;;;;;;5013952;28;20220;-84
2021/12/14 07:49:26;;;;;;;14.07;7.50;;;5.00;99.90;;;;;;5010494;28;20560;-81
2021/12/14 07:51:57;;;;;;;16.70;7.53;;;4.90;99.90;;;;;;5000667;28;20620;-83
2021/12/14 07:54:27;;;;;;;26.33;10.35;;;4.90;99.90;;;;;;5011969;28;20983;-83
2021/12/14 07:57:02;;;;;;;21.45;11.15;;;4.90;99.90;;;;;;4996357;28;20204;-83
2021/12/14 07:59:33;;;;;;;16.30;7.40;;;5.00;99.90;;;;;;4992721;28;20309;-82
2021/12/14 08:02:23;;;;;;;22.42;12.52;;;5.10;99.90;;;;;;5005556;28;20197;-81
2021/12/14 08:04:59;;;;;;;16.95;9.63;;;5.10;99.90;;;;;;4999140;28;20574;-85
2021/12/14 08:07:30;;;;;;;12.00;6.65;;;5.20;99.90;;;;;;5009630;28;20182;-85
2021/12/14 08:10:23;;;;;;;13.88;8.85;;;5.20;99.90;;;;;;4993533;28;20178;-85
2021/12/14 08:12:56;;;;;;;19.92;10.50;;;5.20;99.90;;;;;;5008187;28;20617;-84
2021/12/14 08:15:32;;;;;;;19.67;9.82;;;5.40;99.90;;;;;;4997346;28;20596;-84
2021/12/14 08:18:00;;;;;;;18.42;9.65;;;5.60;99.90;;;;;;5006109;28;20213;-86
2021/12/14 08:20:27;;;;;;;18.40;9.20;;;5.60;99.90;;;;;;5037774;28;20364;-80
2021/12/14 08:22:55;;;;;;;23.23;9.93;;;5.60;99.90;;;;;;5031019;28;20205;-79
2021/12/14 08:25:30;;;;;;;18.98;9.10;;;5.80;99.90;;;;;;5020254;28;20313;-83
2021/12/14 08:28:00;;;;;;;21.52;10.52;;;5.90;99.90;;;;;;5015462;28;20185;-81
2021/12/14 08:30:27;;;;;;;24.75;10.98;;;5.90;99.90;;;;;;5016545;28;20174;-82
2021/12/14 08:32:52;;;;;;;27.80;12.38;;;6.00;99.90;;;;;;4997102;28;20198;-86
2021/12/14 08:35:18;;;;;;;23.20;13.77;;;6.30;99.90;;;;;;4995092;28;20186;-85
2021/12/14 08:37:54;;;;;;;25.30;12.07;;;6.40;99.90;;;;;;5009100;28;20189;-81
2021/12/14 08:40:23;;;;;;;30.58;14.75;;;6.50;99.90;;;;;;5013463;28;20871;-83
2021/12/14 08:43:02;;;;;;;28.98;14.30;;;6.30;99.90;;;;;;5007352;28;20707;-86
2021/12/14 08:45:33;;;;;;;27.95;14.40;;;6.30;99.90;;;;;;4988939;28;20205;-81
2021/12/14 08:48:02;;;;;;;28.52;13.90;;;6.40;99.90;;;;;;4990376;28;20186;-83
2021/12/14 08:50:30;;;;;;;22.08;12.18;;;6.40;99.90;;;;;;5008994;28;20205;-84
2021/12/14 08:52:56;;;;;;;23.27;10.95;;;6.60;99.90;;;;;;5007608;28;20210;-81
2021/12/14 08:55:24;;;;;;;21.92;11.30;;;6.80;99.90;;;;;;5015113;28;21290;-85
2021/12/14 08:57:50;;;;;;;28.88;13.50;;;6.60;99.90;;;;;;4991127;28;20220;-83
2021/12/14 09:00:25;;;;;;;23.57;12.00;;;6.40;99.90;;;;;;4988650;28;20297;-83
2021/12/14 09:02:58;;;;;;;46.17;20.95;;;6.50;99.90;;;;;;5004031;28;20594;-82
2021/12/14 09:05:30;;;;;;;32.92;15.93;;;6.70;99.90;;;;;;5010284;28;20261;-87
2021/12/14 09:07:55;;;;;;;31.42;13.82;;;6.70;99.90;;;;;;4990032;28;20660;-85
2021/12/14 09:10:24;;;;;;;29.40;13.90;;;6.70;99.90;;;;;;4998348;28;20288;-85
2021/12/14 09:12:51;;;;;;;22.15;11.93;;;6.80;99.90;;;;;;5008306;28;20217;-81
2021/12/14 09:15:24;;;;;;;27.63;12.70;;;6.80;99.90;;;;;;4993054;28;20193;-82
2021/12/14 09:17:50;;;;;;;25.98;12.25;;;6.80;99.90;;;;;;4998173;28;20205;-88
2021/12/14 09:20:22;;;;;;;23.48;10.32;;;6.80;99.90;;;;;;5012529;28;20202;-85
2021/12/14 09:22:53;;;;;;;26.65;13.43;;;6.60;99.90;;;;;;5013579;28;20198;-81
2021/12/14 09:25:24;;;;;;;31.88;15.13;;;6.50;99.90;;;;;;4999298;28;20209;-86
2021/12/14 09:27:50;;;;;;;25.60;11.63;;;6.70;99.90;;;;;;4999738;28;20193;-82
2021/12/14 09:30:17;;;;;;;28.50;12.90;;;7.00;99.90;;;;;;5009741;28;20179;-83
2021/12/14 09:32:44;;;;;;;27.75;11.38;;;7.30;99.90;;;;;;5012395;28;20491;-81
2021/12/14 09:35:17;;;;;;;28.83;12.10;;;7.30;99.90;;;;;;5013999;28;20187;-81
2021/12/14 09:37:47;;;;;;;24.75;13.05;;;7.50;99.90;;;;;;4996732;28;20216;-84
2021/12/14 09:40:20;;;;;;;24.48;11.50;;;7.70;99.90;;;;;;5013325;28;20194;-82
2021/12/14 09:42:46;;;;;;;29.67;12.95;;;7.90;99.90;;;;;;4995469;28;20193;-83
2021/12/14 09:45:29;;;;;;;32.60;13.27;;;8.00;99.90;;;;;;4995077;28;20190;-85
2021/12/14 09:47:55;;;;;;;39.30;15.00;;;7.80;99.90;;;;;;4993071;28;20186;-84
2021/12/14 09:50:26;;;;;;;53.78;18.90;;;7.40;99.90;;;;;;4993566;28;20229;-82
2021/12/14 09:52:53;;;;;;;63.53;19.00;;;7.40;99.90;;;;;;5033707;28;20198;-85
2021/12/14 09:55:23;;;;;;;61.05;19.60;;;7.40;99.90;;;;;;5020485;28;20250;-81
2021/12/14 09:57:56;;;;;;;62.97;19.33;;;7.50;99.90;;;;;;5025113;28;20188;-84
2021/12/14 10:00:30;;;;;;;43.90;21.40;;;7.10;99.90;;;;;;5015848;28;20712;-85
2021/12/14 10:02:58;;;;;;;46.15;16.20;;;6.90;99.90;;;;;;5012723;28;20232;-83
2021/12/14 10:05:36;;;;;;;49.17;17.30;;;6.80;99.90;;;;;;4994376;28;20209;-82
2021/12/14 10:08:13;;;;;;;33.85;14.10;;;6.50;99.90;;;;;;5009409;28;20182;-84
2021/12/14 10:10:40;;;;;;;43.42;16.83;;;6.30;99.90;;;;;;4997222;28;20265;-84
2021/12/14 10:13:06;;;;;;;51.63;18.30;;;6.30;99.90;;;;;;4989349;28;20276;-83
2021/12/14 10:15:42;;;;;;;42.50;18.60;;;6.40;99.90;;;;;;4995017;28;20194;-85
2021/12/14 10:18:29;;;;;;;63.83;20.45;;;6.40;99.90;;;;;;5011129;28;20789;-85
2021/12/14 10:21:17;;;;;;;55.45;18.92;;;6.50;99.90;;;;;;5010944;28;20281;-84
2021/12/14 10:23:46;;;;;;;57.60;21.20;;;6.60;99.90;;;;;;5011602;28;20233;-83
2021/12/14 10:26:14;;;;;;;45.90;18.30;;;6.60;99.90;;;;;;4994953;28;20185;-84
2021/12/14 10:28:45;;;;;;;45.75;19.65;;;6.70;99.90;;;;;;4993086;28;20197;-85
2021/12/14 10:31:17;;;;;;;44.03;17.20;;;6.90;99.90;;;;;;4993000;28;20183;-84
2021/12/14 10:33:43;;;;;;;51.03;20.02;;;6.80;99.90;;;;;;4991447;28;20209;-82
2021/12/14 10:36:28;;;;;;;47.70;19.35;;;6.90;99.90;;;;;;5010157;28;20269;-81
2021/12/14 10:39:21;;;;;;;43.80;17.88;;;6.80;99.90;;;;;;5009341;28;20174;-83
2021/12/14 10:44:45;;;;;;;49.35;20.25;;;6.80;99.90;;;;;;5012214;28;20229;-85
2021/12/14 10:47:13;;;;;;;48.75;20.10;;;6.70;99.90;;;;;;5002071;28;20646;-84
2021/12/14 10:49:40;;;;;;;57.47;20.38;;;6.70;99.90;;;;;;4992802;28;20320;-86
2021/12/14 10:52:14;;;;;;;62.45;19.58;;;6.70;99.90;;;;;;5013842;28;20186;-85
2021/12/14 10:54:42;;;;;;;61.58;19.15;;;6.70;99.90;;;;;;5012552;28;20202;-82
2021/12/14 10:57:11;;;;;;;54.42;18.98;;;6.60;99.90;;;;;;4994579;28;20181;-82
2021/12/14 10:59:41;;;;;;;47.92;18.25;;;6.70;99.90;;;;;;5015085;28;20194;-85
2021/12/14 11:02:07;;;;;;;43.83;16.65;;;6.60;99.90;;;;;;5014680;28;20209;-80
2021/12/14 11:04:42;;;;;;;43.72;17.67;;;6.40;99.90;;;;;;5019792;28;20199;-86
2021/12/14 11:07:15;;;;;;;47.03;16.30;;;6.60;99.90;;;;;;4994224;28;20189;-86
2021/12/14 11:09:43;;;;;;;48.28;18.40;;;6.90;99.90;;;;;;5017524;28;20185;-84
2021/12/14 11:12:17;;;;;;;38.63;15.40;;;7.10;99.90;;;;;;5010969;28;20741;-83
2021/12/14 11:14:44;;;;;;;50.35;18.50;;;8.50;99.90;;;;;;5015997;28;20232;-83
2021/12/14 11:20:00;;;;;;;52.65;19.15;;;6.90;99.90;;;;;;5008884;28;20215;-83
2021/12/14 11:22:33;;;;;;;42.58;19.33;;;7.10;99.90;;;;;;5010313;28;20192;-84
2021/12/14 11:25:09;;;;;;;42.28;17.05;;;7.10;99.90;;;;;;5010646;28;20688;-81
2021/12/14 11:27:47;;;;;;;43.95;19.25;;;7.20;99.90;;;;;;5004379;28;20192;-81
2021/12/14 11:30:32;;;;;;;34.60;16.30;;;7.10;99.90;;;;;;5042333;28;20221;-82
2021/12/14 11:33:13;;;;;;;45.63;18.50;;;7.00;99.90;;;;;;5035265;28;20205;-84
2021/12/14 11:35:54;;;;;;;42.78;19.50;;;6.70;99.90;;;;;;5019009;28;20792;-84
2021/12/14 11:38:40;;;;;;;46.22;17.70;;;6.60;99.90;;;;;;5012229;28;20187;-86
2021/12/14 11:41:26;;;;;;;38.22;18.33;;;6.60;99.90;;;;;;5011086;28;20227;-80
2021/12/14 11:44:14;;;;;;;50.53;19.95;;;6.60;99.90;;;;;;5004482;28;20202;-85
2021/12/14 11:47:22;;;;;;;37.75;18.05;;;6.50;99.90;;;;;;4994878;28;20278;-85
2021/12/14 11:50:06;;;;;;;57.13;19.80;;;6.60;99.90;;;;;;5008717;28;20178;-82
2021/12/14 11:52:52;;;;;;;49.58;17.00;;;6.40;99.90;;;;;;5030773;28;20197;-84
2021/12/14 11:55:24;;;;;;;43.30;18.85;;;6.40;99.90;;;;;;5009952;28;20318;-84
2021/12/14 11:58:04;;;;;;;54.70;21.30;;;6.40;99.90;;;;;;4996900;28;20182;-82
2021/12/14 12:00:31;;;;;;;45.72;18.80;;;6.60;99.90;;;;;;5017006;28;20293;-86
2021/12/14 12:02:56;;;;;;;48.00;21.08;;;6.60;99.90;;;;;;5017570;28;20282;-85
2021/12/14 12:05:30;;;;;;;36.00;16.57;;;6.50;99.90;;;;;;5000762;28;20187;-81
2021/12/14 12:11:06;;;;;;;36.20;15.20;;;6.40;99.90;;;;;;5015462;28;20267;-84
2021/12/14 12:13:39;;;;;;;36.67;14.85;;;6.50;99.90;;;;;;5016116;28;20205;-84
2021/12/14 12:16:20;;;;;;;36.28;17.00;;;6.40;99.90;;;;;;5012018;28;20197;-79
2021/12/14 12:19:02;;;;;;;31.63;15.73;;;6.50;99.90;;;;;;5020098;28;20261;-81
2021/12/14 12:21:29;;;;;;;27.00;13.38;;;6.40;99.90;;;;;;5010572;28;22151;-81
2021/12/14 12:23:55;;;;;;;30.77;14.95;;;6.40;99.90;;;;;;5014134;28;20202;-80
2021/12/14 12:26:25;;;;;;;37.03;14.80;;;;;;;;;;5022530;28;20241;-80
2021/12/14 12:28:52;;;;;;;32.60;16.60;;;6.30;99.90;;;;;;5036630;28;20420;-79
2021/12/14 12:31:20;;;;;;;38.95;16.98;;;6.40;99.90;;;;;;5012253;28;20186;-79
2021/12/14 12:33:58;;;;;;;42.05;18.52;;;6.40;99.90;;;;;;5032005;28;20194;-82
2021/12/14 12:36:35;;;;;;;38.45;15.80;;;6.30;99.90;;;;;;5028633;28;20241;-82
2021/12/14 12:39:15;;;;;;;44.30;19.08;;;6.20;99.90;;;;;;5037457;28;20174;-77
2021/12/14 12:41:58;;;;;;;41.35;19.13;;;6.10;99.90;;;;;;5028968;28;20208;-83
2021/12/14 12:44:37;;;;;;;45.50;20.52;;;6.00;99.90;;;;;;5019305;28;20567;-84
2021/12/14 12:47:20;;;;;;;45.92;20.02;;;5.90;99.90;;;;;;5024302;28;20182;-85
2021/12/14 12:49:52;;;;;;;46.50;20.17;;;5.90;99.90;;;;;;5006981;28;20227;-82
2021/12/14 12:52:34;;;;;;;56.85;19.58;;;5.90;99.90;;;;;;5026410;28;20198;-83
2021/12/14 12:55:11;;;;;;;52.85;21.75;;;5.90;99.90;;;;;;5007513;28;20189;-82
2021/12/14 12:57:47;;;;;;;68.00;21.65;;;5.80;99.90;;;;;;5011422;28;20200;-84
2021/12/14 13:00:21;;;;;;;46.90;19.83;;;5.80;99.90;;;;;;5014413;28;22154;-84
2021/12/14 13:02:52;;;;;;;52.55;21.10;;;5.70;99.90;;;;;;5025659;28;20201;-79
2021/12/14 13:05:27;;;;;;;55.53;20.77;;;5.70;99.90;;;;;;5016631;28;20286;-85
2021/12/14 13:08:14;;;;;;;49.10;22.42;;;5.70;99.90;;;;;;5006390;28;20185;-82
2021/12/14 13:10:51;;;;;;;53.28;21.85;;;5.60;99.90;;;;;;5003284;28;20204;-85
2021/12/14 13:13:24;;;;;;;46.15;21.10;;;5.70;99.90;;;;;;5026301;28;20209;-83
2021/12/14 13:15:59;;;;;;;69.78;26.40;;;5.70;99.90;;;;;;5037710;28;20202;-83
2021/12/14 13:18:48;;;;;;;57.25;25.23;;;5.80;99.90;;;;;;5017357;28;20170;-86
2021/12/14 13:21:46;;;;;;;56.85;22.95;;;5.60;99.90;;;;;;5012546;28;20209;-85
2021/12/14 13:24:11;;;;;;;60.20;21.80;;;5.60;99.90;;;;;;4984447;28;20233;-83
2021/12/14 13:26:47;;;;;;;60.50;20.70;;;5.60;99.90;;;;;;5015072;28;21621;-80
2021/12/14 13:29:12;;;;;;;49.15;22.02;;;5.50;99.90;;;;;;5017549;28;20260;-83
2021/12/14 13:31:49;;;;;;;49.50;22.57;;;5.50;99.90;;;;;;5016426;28;20286;-86
2021/12/14 13:34:24;;;;;;;50.25;22.02;;;5.60;99.90;;;;;;5011769;28;20209;-82
2021/12/14 13:36:51;;;;;;;55.92;22.10;;;5.60;99.90;;;;;;4998937;28;20185;-86